sensor_id;sensor_type;location;lat;lon;timestamp;temperature;humidity
20759;DHT22;10539;53.686;9.158;2023-07-22T00:01:19;16.10;99.90
20759;DHT22;10539;53.686;9.158;2023-07-22T00:03:44;16.00;99.90
20759;DHT22;10539;53.686;9.158;2023-07-22T00:06:10;16.00;99.90
20759;DHT22;10539;53.686;9.158;2023-07-22T00:08:38;15.90;99.90
20759;DHT22;10539;53.686;9.158;2023-07-22T00:11:07;15.90;99.90
20759;DHT22;10539;53.686;9.158;2023-07-22T00:13:33;15.90;99.90
20759;DHT22;10539;53.686;9.158;2023-07-22T00:15:59;15.80;99.90
20759;DHT22;10539;53.686;9.158;2023-07-22T00:18:27;15.80;99.90
20759;DHT22;10539;53.686;9.158;2023-07-22T00:20:54;15.80;99.90
20759;DHT22;10539;53.686;9.158;2023-07-22T00:23:20;15.70;99.90
20759;DHT22;10539;53.686;9.158;2023-07-22T00:25:46;15.70;99.90
20759;DHT22;10539;53.686;9.158;2023-07-22T00:28:12;15.70;99.90
20759;DHT22;10539;53.686;9.158;2023-07-22T00:30:38;15.70;99.90
20759;DHT22;10539;53.686;9.158;2023-07-22T00:33:04;15.70;99.90
20759;DHT22;10539;53.686;9.158;2023-07-22T00:35:31;15.80;99.90
20759;DHT22;10539;53.686;9.158;2023-07-22T00:37:58;15.80;99.90
20759;DHT22;10539;53.686;9.158;2023-07-22T00:40:24;15.90;99.90
20759;DHT22;10539;53.686;9.158;2023-07-22T00:42:50;15.90;99.90
20759;DHT22;10539;53.686;9.158;2023-07-22T00:45:15;15.80;99.90
20759;DHT22;10539;53.686;9.158;2023-07-22T00:47:41;15.80;99.90
20759;DHT22;10539;53.686;9.158;2023-07-22T00:50:08;15.80;99.90
20759;DHT22;10539;53.686;9.158;2023-07-22T00:52:34;15.80;99.90
20759;DHT22;10539;53.686;9.158;2023-07-22T00:55:00;15.70;99.90
20759;DHT22;10539;53.686;9.158;2023-07-22T00:57:26;15.70;99.90
20759;DHT22;10539;53.686;9.158;2023-07-22T00:59:52;15.70;99.90
20759;DHT22;10539;53.686;9.158;2023-07-22T01:02:18;15.70;99.90
20759;DHT22;10539;53.686;9.158;2023-07-22T01:04:45;15.60;99.90
20759;DHT22;10539;53.686;9.158;2023-07-22T01:07:11;15.60;99.90
20759;DHT22;10539;53.686;9.158;2023-07-22T01:09:41;15.50;99.90
20759;DHT22;10539;53.686;9.158;2023-07-22T01:12:07;15.50;99.90
20759;DHT22;10539;53.686;9.158;2023-07-22T01:14:36;15.50;99.90
20759;DHT22;10539;53.686;9.158;2023-07-22T01:17:03;15.40;99.90
20759;DHT22;10539;53.686;9.158;2023-07-22T01:19:30;15.40;99.90
20759;DHT22;10539;53.686;9.158;2023-07-22T01:22:01;15.40;99.90
20759;DHT22;10539;53.686;9.158;2023-07-22T01:24:28;15.30;99.90
20759;DHT22;10539;53.686;9.158;2023-07-22T01:26:54;15.30;99.90
20759;DHT22;10539;53.686;9.158;2023-07-22T01:29:24;15.30;99.90
20759;DHT22;10539;53.686;9.158;2023-07-22T01:31:54;15.30;99.90
20759;DHT22;10539;53.686;9.158;2023-07-22T01:34:21;15.30;99.90
20759;DHT22;10539;53.686;9.158;2023-07-22T01:36:47;15.30;99.90
20759;DHT22;10539;53.686;9.158;2023-07-22T01:39:14;15.20;99.90
20759;DHT22;10539;53.686;9.158;2023-07-22T01:41:40;15.20;99.90
20759;DHT22;10539;53.686;9.158;2023-07-22T01:44:06;15.20;99.90
20759;DHT22;10539;53.686;9.158;2023-07-22T01:46:32;15.10;99.90
20759;DHT22;10539;53.686;9.158;2023-07-22T01:48:57;15.10;99.90
20759;DHT22;10539;53.686;9.158;2023-07-22T01:51:23;15.10;99.90
20759;DHT22;10539;53.686;9.158;2023-07-22T01:53:49;15.00;99.90
20759;DHT22;10539;53.686;9.158;2023-07-22T01:56:17;15.00;99.90
20759;DHT22;10539;53.686;9.158;2023-07-22T01:58:43;15.00;99.90
20759;DHT22;10539;53.686;9.158;2023-07-22T02:01:08;14.90;99.90
20759;DHT22;10539;53.686;9.158;2023-07-22T02:03:34;14.90;99.90
20759;DHT22;10539;53.686;9.158;2023-07-22T02:06:04;14.90;99.90
20759;DHT22;10539;53.686;9.158;2023-07-22T02:08:30;14.90;99.90
20759;DHT22;10539;53.686;9.158;2023-07-22T02:11:02;14.90;99.90
20759;DHT22;10539;53.686;9.158;2023-07-22T02:13:30;14.90;99.90
20759;DHT22;10539;53.686;9.158;2023-07-22T02:15:55;14.90;99.90
20759;DHT22;10539;53.686;9.158;2023-07-22T02:18:21;14.90;99.90
20759;DHT22;10539;53.686;9.158;2023-07-22T02:20:47;14.90;99.90
20759;DHT22;10539;53.686;9.158;2023-07-22T02:23:14;14.90;99.90
20759;DHT22;10539;53.686;9.158;2023-07-22T02:25:40;14.90;99.90
20759;DHT22;10539;53.686;9.158;2023-07-22T02:28:05;14.80;99.90
20759;DHT22;10539;53.686;9.158;2023-07-22T02:30:36;14.80;99.90
20759;DHT22;10539;53.686;9.158;2023-07-22T02:33:04;14.80;99.90
20759;DHT22;10539;53.686;9.158;2023-07-22T02:35:30;14.80;99.90
20759;DHT22;10539;53.686;9.158;2023-07-22T02:37:55;14.80;99.90
20759;DHT22;10539;53.686;9.158;2023-07-22T02:40:21;14.80;99.90
20759;DHT22;10539;53.686;9.158;2023-07-22T02:42:47;14.80;99.90
20759;DHT22;10539;53.686;9.158;2023-07-22T02:45:12;14.80;99.90
20759;DHT22;10539;53.686;9.158;2023-07-22T02:47:38;14.80;99.90
20759;DHT22;10539;53.686;9.158;2023-07-22T02:50:06;14.80;99.90
20759;DHT22;10539;53.686;9.158;2023-07-22T02:52:32;14.80;99.90
20759;DHT22;10539;53.686;9.158;2023-07-22T02:55:06;14.90;99.90
20759;DHT22;10539;53.686;9.158;2023-07-22T02:57:32;14.90;99.90
20759;DHT22;10539;53.686;9.158;2023-07-22T02:59:58;14.80;99.90
20759;DHT22;10539;53.686;9.158;2023-07-22T03:02:24;14.80;99.90
20759;DHT22;10539;53.686;9.158;2023-07-22T03:04:50;14.80;99.90
20759;DHT22;10539;53.686;9.158;2023-07-22T03:07:16;14.80;99.90
20759;DHT22;10539;53.686;9.158;2023-07-22T03:09:41;14.80;99.90
20759;DHT22;10539;53.686;9.158;2023-07-22T03:12:08;14.80;99.90
20759;DHT22;10539;53.686;9.158;2023-07-22T03:14:33;14.80;99.90
20759;DHT22;10539;53.686;9.158;2023-07-22T03:17:02;14.70;99.90
20759;DHT22;10539;53.686;9.158;2023-07-22T03:19:29;14.70;99.90
20759;DHT22;10539;53.686;9.158;2023-07-22T03:21:55;14.70;99.90
20759;DHT22;10539;53.686;9.158;2023-07-22T03:24:20;14.60;99.90
20759;DHT22;10539;53.686;9.158;2023-07-22T03:26:46;14.60;99.90
20759;DHT22;10539;53.686;9.158;2023-07-22T03:29:12;14.60;99.90
20759;DHT22;10539;53.686;9.158;2023-07-22T03:31:38;14.60;99.90
20759;DHT22;10539;53.686;9.158;2023-07-22T03:34:04;14.70;99.90
20759;DHT22;10539;53.686;9.158;2023-07-22T03:36:30;14.70;99.90
20759;DHT22;10539;53.686;9.158;2023-07-22T03:38:59;14.80;99.90
20759;DHT22;10539;53.686;9.158;2023-07-22T03:41:25;14.80;99.90
20759;DHT22;10539;53.686;9.158;2023-07-22T03:43:51;14.80;99.90
20759;DHT22;10539;53.686;9.158;2023-07-22T03:46:17;14.70;99.90
20759;DHT22;10539;53.686;9.158;2023-07-22T03:48:42;14.70;99.90
20759;DHT22;10539;53.686;9.158;2023-07-22T03:51:08;14.70;99.90
20759;DHT22;10539;53.686;9.158;2023-07-22T03:53:34;14.70;99.90
20759;DHT22;10539;53.686;9.158;2023-07-22T03:55:59;14.70;99.90
20759;DHT22;10539;53.686;9.158;2023-07-22T03:58:25;14.70;99.90
20759;DHT22;10539;53.686;9.158;2023-07-22T04:00:51;14.70;99.90
20759;DHT22;10539;53.686;9.158;2023-07-22T04:03:17;14.60;99.90
20759;DHT22;10539;53.686;9.158;2023-07-22T04:05:43;14.60;99.90
20759;DHT22;10539;53.686;9.158;2023-07-22T04:08:08;14.60;99.90
20759;DHT22;10539;53.686;9.158;2023-07-22T04:10:34;14.60;99.90
20759;DHT22;10539;53.686;9.158;2023-07-22T04:13:00;14.60;99.90
20759;DHT22;10539;53.686;9.158;2023-07-22T04:15:26;14.60;99.90
20759;DHT22;10539;53.686;9.158;2023-07-22T04:17:51;14.60;99.90
20759;DHT22;10539;53.686;9.158;2023-07-22T04:20:17;14.70;99.90
20759;DHT22;10539;53.686;9.158;2023-07-22T04:22:43;14.70;99.90
20759;DHT22;10539;53.686;9.158;2023-07-22T04:25:09;14.70;99.90
20759;DHT22;10539;53.686;9.158;2023-07-22T04:27:35;14.80;99.90
20759;DHT22;10539;53.686;9.158;2023-07-22T04:30:00;14.80;99.90
20759;DHT22;10539;53.686;9.158;2023-07-22T04:32:26;14.80;99.90
20759;DHT22;10539;53.686;9.158;2023-07-22T04:34:52;14.80;99.90
20759;DHT22;10539;53.686;9.158;2023-07-22T04:37:18;14.80;99.90
20759;DHT22;10539;53.686;9.158;2023-07-22T04:39:48;14.90;99.90
20759;DHT22;10539;53.686;9.158;2023-07-22T04:42:14;14.90;99.90
20759;DHT22;10539;53.686;9.158;2023-07-22T04:44:39;14.90;99.90
20759;DHT22;10539;53.686;9.158;2023-07-22T04:47:06;15.00;99.90
20759;DHT22;10539;53.686;9.158;2023-07-22T04:49:32;15.00;99.90
20759;DHT22;10539;53.686;9.158;2023-07-22T04:51:57;15.10;99.90
20759;DHT22;10539;53.686;9.158;2023-07-22T04:54:23;15.10;99.90
20759;DHT22;10539;53.686;9.158;2023-07-22T04:56:49;15.20;99.90
20759;DHT22;10539;53.686;9.158;2023-07-22T04:59:15;15.20;99.90
20759;DHT22;10539;53.686;9.158;2023-07-22T05:01:41;15.30;99.90
20759;DHT22;10539;53.686;9.158;2023-07-22T05:04:07;15.30;99.90
20759;DHT22;10539;53.686;9.158;2023-07-22T05:06:32;15.30;99.90
20759;DHT22;10539;53.686;9.158;2023-07-22T05:08:58;15.40;99.90
20759;DHT22;10539;53.686;9.158;2023-07-22T05:11:24;15.50;99.90
20759;DHT22;10539;53.686;9.158;2023-07-22T05:13:50;15.50;99.90
20759;DHT22;10539;53.686;9.158;2023-07-22T05:16:16;15.50;99.90
20759;DHT22;10539;53.686;9.158;2023-07-22T05:18:42;15.50;99.90
20759;DHT22;10539;53.686;9.158;2023-07-22T05:21:07;15.60;99.90
20759;DHT22;10539;53.686;9.158;2023-07-22T05:23:33;15.60;99.90
20759;DHT22;10539;53.686;9.158;2023-07-22T05:25:59;15.70;99.90
20759;DHT22;10539;53.686;9.158;2023-07-22T05:28:25;15.70;99.90
20759;DHT22;10539;53.686;9.158;2023-07-22T05:30:51;15.80;99.90
20759;DHT22;10539;53.686;9.158;2023-07-22T05:33:16;15.90;99.90
20759;DHT22;10539;53.686;9.158;2023-07-22T05:35:42;16.00;99.90
20759;DHT22;10539;53.686;9.158;2023-07-22T05:38:08;16.00;99.90
20759;DHT22;10539;53.686;9.158;2023-07-22T05:40:33;16.00;99.90
20759;DHT22;10539;53.686;9.158;2023-07-22T05:42:59;16.00;99.90
20759;DHT22;10539;53.686;9.158;2023-07-22T05:45:25;16.10;99.90
20759;DHT22;10539;53.686;9.158;2023-07-22T05:47:51;16.10;99.90
20759;DHT22;10539;53.686;9.158;2023-07-22T05:50:16;16.20;99.90
20759;DHT22;10539;53.686;9.158;2023-07-22T05:52:42;16.30;99.90
20759;DHT22;10539;53.686;9.158;2023-07-22T05:55:09;16.40;99.90
20759;DHT22;10539;53.686;9.158;2023-07-22T05:57:35;16.40;99.90
20759;DHT22;10539;53.686;9.158;2023-07-22T06:00:01;16.40;99.90
20759;DHT22;10539;53.686;9.158;2023-07-22T06:02:28;16.50;99.90
20759;DHT22;10539;53.686;9.158;2023-07-22T06:04:54;16.60;99.90
20759;DHT22;10539;53.686;9.158;2023-07-22T06:07:19;16.60;99.90
20759;DHT22;10539;53.686;9.158;2023-07-22T06:09:45;16.60;99.90
20759;DHT22;10539;53.686;9.158;2023-07-22T06:12:11;16.70;99.90
20759;DHT22;10539;53.686;9.158;2023-07-22T06:14:37;16.70;99.90
20759;DHT22;10539;53.686;9.158;2023-07-22T06:17:03;16.70;99.90
20759;DHT22;10539;53.686;9.158;2023-07-22T06:19:29;16.80;99.90
20759;DHT22;10539;53.686;9.158;2023-07-22T06:21:55;16.80;99.90
20759;DHT22;10539;53.686;9.158;2023-07-22T06:24:20;16.80;99.90
20759;DHT22;10539;53.686;9.158;2023-07-22T06:26:46;16.90;99.90
20759;DHT22;10539;53.686;9.158;2023-07-22T06:29:12;17.00;99.90
20759;DHT22;10539;53.686;9.158;2023-07-22T06:31:38;17.00;99.90
20759;DHT22;10539;53.686;9.158;2023-07-22T06:34:03;17.10;99.90
20759;DHT22;10539;53.686;9.158;2023-07-22T06:36:29;17.20;99.90
20759;DHT22;10539;53.686;9.158;2023-07-22T06:38:55;17.20;99.90
20759;DHT22;10539;53.686;9.158;2023-07-22T06:41:20;17.30;99.90
20759;DHT22;10539;53.686;9.158;2023-07-22T06:43:46;17.40;99.90
20759;DHT22;10539;53.686;9.158;2023-07-22T06:46:12;17.50;99.90
20759;DHT22;10539;53.686;9.158;2023-07-22T06:48:37;17.50;99.90
20759;DHT22;10539;53.686;9.158;2023-07-22T06:51:03;17.60;99.90
20759;DHT22;10539;53.686;9.158;2023-07-22T06:53:29;17.80;99.90
20759;DHT22;10539;53.686;9.158;2023-07-22T06:55:56;18.50;99.90
20759;DHT22;10539;53.686;9.158;2023-07-22T06:58:22;19.40;99.90
20759;DHT22;10539;53.686;9.158;2023-07-22T07:00:52;20.00;99.90
20759;DHT22;10539;53.686;9.158;2023-07-22T07:03:18;20.70;99.90
20759;DHT22;10539;53.686;9.158;2023-07-22T07:05:43;21.20;99.90
20759;DHT22;10539;53.686;9.158;2023-07-22T07:08:09;21.40;99.90
20759;DHT22;10539;53.686;9.158;2023-07-22T07:10:38;21.60;99.90
20759;DHT22;10539;53.686;9.158;2023-07-22T07:13:05;21.80;99.90
20759;DHT22;10539;53.686;9.158;2023-07-22T07:15:31;22.10;99.90
20759;DHT22;10539;53.686;9.158;2023-07-22T07:17:57;22.10;99.90
20759;DHT22;10539;53.686;9.158;2023-07-22T07:20:22;22.20;99.90
20759;DHT22;10539;53.686;9.158;2023-07-22T07:22:48;22.30;99.90
20759;DHT22;10539;53.686;9.158;2023-07-22T07:25:14;22.30;99.90
20759;DHT22;10539;53.686;9.158;2023-07-22T07:27:40;22.60;99.90
20759;DHT22;10539;53.686;9.158;2023-07-22T07:30:07;22.80;99.90
20759;DHT22;10539;53.686;9.158;2023-07-22T07:32:34;23.00;99.90
20759;DHT22;10539;53.686;9.158;2023-07-22T07:35:00;23.00;99.90
20759;DHT22;10539;53.686;9.158;2023-07-22T07:37:26;22.80;99.90
20759;DHT22;10539;53.686;9.158;2023-07-22T07:39:51;23.10;99.90
20759;DHT22;10539;53.686;9.158;2023-07-22T07:42:17;23.10;99.90
20759;DHT22;10539;53.686;9.158;2023-07-22T07:44:43;23.10;99.90
20759;DHT22;10539;53.686;9.158;2023-07-22T07:47:08;23.30;99.90
20759;DHT22;10539;53.686;9.158;2023-07-22T07:49:34;23.60;99.90
20759;DHT22;10539;53.686;9.158;2023-07-22T07:52:00;23.30;99.90
20759;DHT22;10539;53.686;9.158;2023-07-22T07:54:26;22.80;99.90
20759;DHT22;10539;53.686;9.158;2023-07-22T07:56:51;22.50;99.90
20759;DHT22;10539;53.686;9.158;2023-07-22T07:59:17;22.10;99.90
20759;DHT22;10539;53.686;9.158;2023-07-22T08:01:42;21.80;99.90
20759;DHT22;10539;53.686;9.158;2023-07-22T08:04:08;21.50;99.90
20759;DHT22;10539;53.686;9.158;2023-07-22T08:06:34;21.20;99.90
20759;DHT22;10539;53.686;9.158;2023-07-22T08:09:00;21.10;99.90
20759;DHT22;10539;53.686;9.158;2023-07-22T08:11:26;21.00;99.90
20759;DHT22;10539;53.686;9.158;2023-07-22T08:13:51;21.00;99.90
20759;DHT22;10539;53.686;9.158;2023-07-22T08:16:17;21.10;99.90
20759;DHT22;10539;53.686;9.158;2023-07-22T08:18:43;21.00;99.90
20759;DHT22;10539;53.686;9.158;2023-07-22T08:21:09;20.90;99.90
20759;DHT22;10539;53.686;9.158;2023-07-22T08:23:36;20.90;99.90
20759;DHT22;10539;53.686;9.158;2023-07-22T08:26:02;20.90;99.90
20759;DHT22;10539;53.686;9.158;2023-07-22T08:28:31;21.10;99.90
20759;DHT22;10539;53.686;9.158;2023-07-22T08:30:56;21.20;99.90
20759;DHT22;10539;53.686;9.158;2023-07-22T08:33:23;21.30;99.90
20759;DHT22;10539;53.686;9.158;2023-07-22T08:35:51;21.30;99.90
20759;DHT22;10539;53.686;9.158;2023-07-22T08:38:17;21.20;99.90
20759;DHT22;10539;53.686;9.158;2023-07-22T08:40:42;21.10;99.90
20759;DHT22;10539;53.686;9.158;2023-07-22T08:43:10;21.10;99.90
20759;DHT22;10539;53.686;9.158;2023-07-22T08:45:38;21.00;99.90
20759;DHT22;10539;53.686;9.158;2023-07-22T08:48:08;21.00;99.90
20759;DHT22;10539;53.686;9.158;2023-07-22T08:50:46;21.00;99.90
20759;DHT22;10539;53.686;9.158;2023-07-22T08:53:15;21.00;99.90
20759;DHT22;10539;53.686;9.158;2023-07-22T08:55:41;21.00;99.90
20759;DHT22;10539;53.686;9.158;2023-07-22T08:58:11;21.00;99.90
20759;DHT22;10539;53.686;9.158;2023-07-22T09:00:39;21.10;99.90
20759;DHT22;10539;53.686;9.158;2023-07-22T09:03:06;21.10;99.90
20759;DHT22;10539;53.686;9.158;2023-07-22T09:05:33;21.10;99.90
20759;DHT22;10539;53.686;9.158;2023-07-22T09:08:02;21.10;99.90
20759;DHT22;10539;53.686;9.158;2023-07-22T09:10:29;21.00;99.90
20759;DHT22;10539;53.686;9.158;2023-07-22T09:12:56;20.90;99.90
20759;DHT22;10539;53.686;9.158;2023-07-22T09:15:22;20.90;99.90
20759;DHT22;10539;53.686;9.158;2023-07-22T09:17:49;21.00;99.90
20759;DHT22;10539;53.686;9.158;2023-07-22T09:20:15;21.10;99.90
20759;DHT22;10539;53.686;9.158;2023-07-22T09:22:46;21.20;99.90
20759;DHT22;10539;53.686;9.158;2023-07-22T09:25:20;21.30;99.90
20759;DHT22;10539;53.686;9.158;2023-07-22T09:27:54;21.30;99.90
20759;DHT22;10539;53.686;9.158;2023-07-22T09:30:27;21.30;99.90
20759;DHT22;10539;53.686;9.158;2023-07-22T09:32:55;21.30;99.90
20759;DHT22;10539;53.686;9.158;2023-07-22T09:35:22;21.30;99.90
20759;DHT22;10539;53.686;9.158;2023-07-22T09:37:48;21.40;99.90
20759;DHT22;10539;53.686;9.158;2023-07-22T09:40:25;21.40;99.90
20759;DHT22;10539;53.686;9.158;2023-07-22T09:42:52;21.40;99.90
20759;DHT22;10539;53.686;9.158;2023-07-22T09:45:21;21.50;99.90
20759;DHT22;10539;53.686;9.158;2023-07-22T09:47:48;21.50;99.90
20759;DHT22;10539;53.686;9.158;2023-07-22T09:50:25;21.50;99.90
20759;DHT22;10539;53.686;9.158;2023-07-22T09:52:54;21.40;99.90
20759;DHT22;10539;53.686;9.158;2023-07-22T09:55:28;21.40;99.90
20759;DHT22;10539;53.686;9.158;2023-07-22T09:58:02;21.50;99.90
20759;DHT22;10539;53.686;9.158;2023-07-22T10:00:30;21.50;99.90
20759;DHT22;10539;53.686;9.158;2023-07-22T10:02:58;21.50;99.90
20759;DHT22;10539;53.686;9.158;2023-07-22T10:05:25;21.60;99.90
20759;DHT22;10539;53.686;9.158;2023-07-22T10:08:02;21.70;99.90
20759;DHT22;10539;53.686;9.158;2023-07-22T10:10:34;21.70;99.90
20759;DHT22;10539;53.686;9.158;2023-07-22T10:13:01;21.60;99.90
20759;DHT22;10539;53.686;9.158;2023-07-22T10:15:30;21.40;99.90
20759;DHT22;10539;53.686;9.158;2023-07-22T10:17:57;21.40;99.90
20759;DHT22;10539;53.686;9.158;2023-07-22T10:20:23;21.50;99.90
20759;DHT22;10539;53.686;9.158;2023-07-22T10:22:50;21.80;99.90
20759;DHT22;10539;53.686;9.158;2023-07-22T10:25:20;22.00;99.90
20759;DHT22;10539;53.686;9.158;2023-07-22T10:27:48;22.20;99.90
20759;DHT22;10539;53.686;9.158;2023-07-22T10:30:16;22.40;99.90
20759;DHT22;10539;53.686;9.158;2023-07-22T10:32:47;22.60;99.90
20759;DHT22;10539;53.686;9.158;2023-07-22T10:38:17;22.60;99.90
20759;DHT22;10539;53.686;9.158;2023-07-22T10:40:53;22.60;99.90
20759;DHT22;10539;53.686;9.158;2023-07-22T10:43:30;22.50;99.90
20759;DHT22;10539;53.686;9.158;2023-07-22T10:45:58;22.40;99.90
20759;DHT22;10539;53.686;9.158;2023-07-22T10:48:34;22.40;99.90
20759;DHT22;10539;53.686;9.158;2023-07-22T10:51:11;22.40;99.90
20759;DHT22;10539;53.686;9.158;2023-07-22T10:53:43;22.40;99.90
20759;DHT22;10539;53.686;9.158;2023-07-22T11:14:29;22.60;99.90
20759;DHT22;10539;53.686;9.158;2023-07-22T11:17:00;22.60;99.90
20759;DHT22;10539;53.686;9.158;2023-07-22T11:19:34;22.40;99.90
20759;DHT22;10539;53.686;9.158;2023-07-22T11:22:00;22.30;99.90
20759;DHT22;10539;53.686;9.158;2023-07-22T11:24:26;22.10;99.90
20759;DHT22;10539;53.686;9.158;2023-07-22T11:26:53;22.10;99.90
20759;DHT22;10539;53.686;9.158;2023-07-22T11:29:19;22.00;99.90
20759;DHT22;10539;53.686;9.158;2023-07-22T11:31:47;21.80;99.90
20759;DHT22;10539;53.686;9.158;2023-07-22T11:34:18;21.70;99.90
20759;DHT22;10539;53.686;9.158;2023-07-22T11:36:46;21.60;99.90
20759;DHT22;10539;53.686;9.158;2023-07-22T11:39:15;21.40;99.90
20759;DHT22;10539;53.686;9.158;2023-07-22T11:41:42;21.20;99.90
20759;DHT22;10539;53.686;9.158;2023-07-22T11:44:09;21.10;99.90
20759;DHT22;10539;53.686;9.158;2023-07-22T11:49:28;21.30;99.90
20759;DHT22;10539;53.686;9.158;2023-07-22T11:52:05;21.50;99.90
20759;DHT22;10539;53.686;9.158;2023-07-22T11:54:34;21.60;99.90
20759;DHT22;10539;53.686;9.158;2023-07-22T11:57:15;21.70;99.90
20759;DHT22;10539;53.686;9.158;2023-07-22T11:59:49;21.80;99.90
20759;DHT22;10539;53.686;9.158;2023-07-22T12:02:22;21.80;99.90
20759;DHT22;10539;53.686;9.158;2023-07-22T12:05:06;21.70;99.90
20759;DHT22;10539;53.686;9.158;2023-07-22T12:07:34;21.60;99.90
20759;DHT22;10539;53.686;9.158;2023-07-22T12:10:03;21.20;99.90
20759;DHT22;10539;53.686;9.158;2023-07-22T12:12:44;20.70;99.90
20759;DHT22;10539;53.686;9.158;2023-07-22T12:17:48;20.50;99.90
20759;DHT22;10539;53.686;9.158;2023-07-22T12:20:15;20.50;99.90
20759;DHT22;10539;53.686;9.158;2023-07-22T12:22:41;20.50;99.90
20759;DHT22;10539;53.686;9.158;2023-07-22T12:25:08;20.60;99.90
20759;DHT22;10539;53.686;9.158;2023-07-22T12:27:35;20.80;99.90
20759;DHT22;10539;53.686;9.158;2023-07-22T12:30:00;20.80;99.90
20759;DHT22;10539;53.686;9.158;2023-07-22T12:32:27;20.80;99.90
20759;DHT22;10539;53.686;9.158;2023-07-22T12:34:53;20.80;99.90
20759;DHT22;10539;53.686;9.158;2023-07-22T12:37:19;20.80;99.90
20759;DHT22;10539;53.686;9.158;2023-07-22T12:39:45;20.80;99.90
20759;DHT22;10539;53.686;9.158;2023-07-22T12:42:10;20.80;99.90
20759;DHT22;10539;53.686;9.158;2023-07-22T12:44:36;20.80;99.90
20759;DHT22;10539;53.686;9.158;2023-07-22T12:47:02;20.70;99.90
20759;DHT22;10539;53.686;9.158;2023-07-22T12:49:28;20.80;99.90
20759;DHT22;10539;53.686;9.158;2023-07-22T12:51:54;20.70;99.90
20759;DHT22;10539;53.686;9.158;2023-07-22T12:54:20;20.60;99.90
20759;DHT22;10539;53.686;9.158;2023-07-22T12:56:45;20.50;99.90
20759;DHT22;10539;53.686;9.158;2023-07-22T12:59:11;20.30;99.90
20759;DHT22;10539;53.686;9.158;2023-07-22T13:01:37;19.90;99.90
20759;DHT22;10539;53.686;9.158;2023-07-22T13:04:04;19.70;99.90
20759;DHT22;10539;53.686;9.158;2023-07-22T13:06:31;19.50;99.90
20759;DHT22;10539;53.686;9.158;2023-07-22T13:08:56;19.20;99.90
20759;DHT22;10539;53.686;9.158;2023-07-22T13:11:23;19.00;99.90
20759;DHT22;10539;53.686;9.158;2023-07-22T13:13:48;18.90;99.90
20759;DHT22;10539;53.686;9.158;2023-07-22T13:16:14;19.00;99.90
20759;DHT22;10539;53.686;9.158;2023-07-22T13:18:40;19.10;99.90
20759;DHT22;10539;53.686;9.158;2023-07-22T13:21:06;19.20;99.90
20759;DHT22;10539;53.686;9.158;2023-07-22T13:23:31;19.30;99.90
20759;DHT22;10539;53.686;9.158;2023-07-22T13:25:57;19.30;99.90
20759;DHT22;10539;53.686;9.158;2023-07-22T13:28:23;19.40;99.90
20759;DHT22;10539;53.686;9.158;2023-07-22T13:30:49;19.50;99.90
20759;DHT22;10539;53.686;9.158;2023-07-22T13:33:14;19.60;99.90
20759;DHT22;10539;53.686;9.158;2023-07-22T13:35:40;19.70;99.90
20759;DHT22;10539;53.686;9.158;2023-07-22T13:38:06;19.80;99.90
20759;DHT22;10539;53.686;9.158;2023-07-22T13:40:32;19.90;99.90
20759;DHT22;10539;53.686;9.158;2023-07-22T13:42:57;19.90;99.90
20759;DHT22;10539;53.686;9.158;2023-07-22T13:45:23;19.90;99.90
20759;DHT22;10539;53.686;9.158;2023-07-22T13:47:49;20.00;99.90
20759;DHT22;10539;53.686;9.158;2023-07-22T13:50:14;20.00;99.90
20759;DHT22;10539;53.686;9.158;2023-07-22T13:52:40;20.00;99.90
20759;DHT22;10539;53.686;9.158;2023-07-22T13:55:07;20.00;99.90
20759;DHT22;10539;53.686;9.158;2023-07-22T13:57:33;20.00;99.90
20759;DHT22;10539;53.686;9.158;2023-07-22T13:59:59;20.00;99.90
20759;DHT22;10539;53.686;9.158;2023-07-22T14:02:24;19.90;99.90
20759;DHT22;10539;53.686;9.158;2023-07-22T14:04:50;19.90;99.90
20759;DHT22;10539;53.686;9.158;2023-07-22T14:07:16;19.90;99.90
20759;DHT22;10539;53.686;9.158;2023-07-22T14:09:43;19.90;99.90
20759;DHT22;10539;53.686;9.158;2023-07-22T14:12:09;19.90;99.90
20759;DHT22;10539;53.686;9.158;2023-07-22T14:14:35;19.90;99.90
20759;DHT22;10539;53.686;9.158;2023-07-22T14:17:00;19.90;99.90
20759;DHT22;10539;53.686;9.158;2023-07-22T14:19:26;19.90;99.90
20759;DHT22;10539;53.686;9.158;2023-07-22T14:21:53;20.00;99.90
20759;DHT22;10539;53.686;9.158;2023-07-22T14:24:19;20.10;99.90
20759;DHT22;10539;53.686;9.158;2023-07-22T14:26:45;20.10;99.90
20759;DHT22;10539;53.686;9.158;2023-07-22T14:29:10;20.20;99.90
20759;DHT22;10539;53.686;9.158;2023-07-22T14:31:36;20.20;99.90
20759;DHT22;10539;53.686;9.158;2023-07-22T14:34:02;20.20;99.90
20759;DHT22;10539;53.686;9.158;2023-07-22T14:36:27;20.30;99.90
20759;DHT22;10539;53.686;9.158;2023-07-22T14:38:54;20.30;99.90
20759;DHT22;10539;53.686;9.158;2023-07-22T14:41:19;20.40;99.90
20759;DHT22;10539;53.686;9.158;2023-07-22T14:43:45;20.40;99.90
20759;DHT22;10539;53.686;9.158;2023-07-22T14:46:11;20.40;99.90
20759;DHT22;10539;53.686;9.158;2023-07-22T14:48:37;20.40;99.90
20759;DHT22;10539;53.686;9.158;2023-07-22T14:51:03;20.50;99.90
20759;DHT22;10539;53.686;9.158;2023-07-22T14:53:29;20.50;99.90
20759;DHT22;10539;53.686;9.158;2023-07-22T14:55:54;20.50;99.90
20759;DHT22;10539;53.686;9.158;2023-07-22T14:58:20;20.50;99.90
20759;DHT22;10539;53.686;9.158;2023-07-22T15:00:46;20.50;99.90
20759;DHT22;10539;53.686;9.158;2023-07-22T15:03:12;20.50;99.90
20759;DHT22;10539;53.686;9.158;2023-07-22T15:05:38;20.50;99.90
20759;DHT22;10539;53.686;9.158;2023-07-22T15:08:03;20.60;99.90
20759;DHT22;10539;53.686;9.158;2023-07-22T15:10:30;20.50;99.90
20759;DHT22;10539;53.686;9.158;2023-07-22T15:12:56;20.50;99.90
20759;DHT22;10539;53.686;9.158;2023-07-22T15:15:22;20.50;99.90
20759;DHT22;10539;53.686;9.158;2023-07-22T15:17:48;20.50;99.90
20759;DHT22;10539;53.686;9.158;2023-07-22T15:20:14;20.40;99.90
20759;DHT22;10539;53.686;9.158;2023-07-22T15:22:39;20.40;99.90
20759;DHT22;10539;53.686;9.158;2023-07-22T15:25:05;20.30;99.90
20759;DHT22;10539;53.686;9.158;2023-07-22T15:27:31;20.30;99.90
20759;DHT22;10539;53.686;9.158;2023-07-22T15:29:57;20.20;99.90
20759;DHT22;10539;53.686;9.158;2023-07-22T15:32:23;20.10;99.90
20759;DHT22;10539;53.686;9.158;2023-07-22T15:34:49;20.10;99.90
20759;DHT22;10539;53.686;9.158;2023-07-22T15:37:15;20.00;99.90
20759;DHT22;10539;53.686;9.158;2023-07-22T15:39:40;19.90;99.90
20759;DHT22;10539;53.686;9.158;2023-07-22T15:42:06;19.80;99.90
20759;DHT22;10539;53.686;9.158;2023-07-22T15:44:33;19.70;99.90
20759;DHT22;10539;53.686;9.158;2023-07-22T15:46:59;19.70;99.90
20759;DHT22;10539;53.686;9.158;2023-07-22T15:49:24;19.60;99.90
20759;DHT22;10539;53.686;9.158;2023-07-22T15:51:50;19.60;99.90
20759;DHT22;10539;53.686;9.158;2023-07-22T15:54:16;19.50;99.90